Gelbelsee, Germany

10:33 AM CEST on September 17, 2014 (GMT +0200)
IBAVARIA22 | Change Station
CLOSE
Current Station
Personal Weather Station
Location: Greding, Bayern
Elevation: 1306 ft
Nearby Weather Stations

Elev 1306 ft 49.04 °N, 11.35 °E | Updated 3 minutes ago

Mostly Cloudy
Mostly Cloudy
62.2 °F
Feels Like 62.2 °F
N
0.1
Wind Variable Wind from ESE
Gusts 1.0 mph

Today
High -- | Low -- °F
--% Chance of Precip.
Yesterday
High -- | Low -- °F
Precip. -- in
6:53 AM 7:23 PM
Last Quarter, 38% visible
Pressure 29.98 in
Visibility 3.7 miles
Clouds Mostly Cloudy 700 ft
Dew Point 57 °F
Humidity 82%
Rainfall 0.01 in
Snow Depth Not available.
UV 2.2 out of 12
Pollen Not available.
Air Quality Not available.
Flu Activity Not available.
METAR ETSI 170820Z 14002KT 6000 BKN007 14/13 Q1015 GRN BLU+ TEMPO GRN

More Conditions Fewer Conditions

Pressure 29.98 in
Visibility 3.7 miles
Clouds Mostly Cloudy 700 ft
Dew Point 57 °F
Humidity 82%
Rainfall 0.01 in
Snow Depth Not available.
UV 2.2 out of 12
Pollen Not available.
Air Quality Not available.
Flu Activity Not available.
METAR ETSI 170820Z 14002KT 6000 BKN007 14/13 Q1015 GRN BLU+ TEMPO GRN

More Conditions Fewer Conditions

10-Day Weather Forecast

Almanac

Astronomy

Sep. 17, 2014 Rise Set
Actual Time 6:53 AM CEST 7:23 PM CEST
Civil Twilight 6:21 AM CEST 7:55 PM CEST
Nautical Twilight 5:43 AM CEST 8:32 PM CEST
Astronomical Twilight 5:04 AM CEST 9:11 PM CEST
Moon 12:16 AM CEST 3:42 PM CEST
Length of Visible Light 13h 33m
Length of Day
12h 30m
Tomorrow will be 3m 34s shorter.
Last Quarter, 38% of the Moon is Illuminated
Today
Last Quarter
Sep 24
New
Oct 1
First Quarter
Oct 8
Full
Oct 15
Last Quarter

Yesterday's Extremes

Country Highs Country Lows

Community

WunderPhotos

Upload Photos

1,753,990 photos uploaded!

Nearby

Snow Depth

Not available.

Earthquake Activity

City Distance Mag. Time & Date
No recent earthquake activity has been reported nearby.
Minimum magnitude displayed is 2.5.

Coastal Water Temperatures

Place Temperature
No Stations Reporting

Nearby Weather Stations